createdAt,value
2018-09-30T00:00:52.684Z,1024.70
2018-09-30T00:02:19.971Z,1024.74
2018-09-30T00:03:47.239Z,1024.76
2018-09-30T00:05:14.643Z,1024.76
2018-09-30T00:06:41.866Z,1024.77
2018-09-30T00:08:09.123Z,1024.80
2018-09-30T00:09:36.416Z,1024.77
2018-09-30T00:11:03.489Z,1024.74
2018-09-30T00:12:30.867Z,1024.75
2018-09-30T00:13:58.325Z,1024.72
2018-09-30T00:15:25.456Z,1024.70
2018-09-30T00:16:52.952Z,1024.68
2018-09-30T00:18:20.153Z,1024.66
2018-09-30T00:19:47.306Z,1024.64
2018-09-30T00:21:14.497Z,1024.65
2018-09-30T00:22:41.827Z,1024.66
2018-09-30T00:24:08.910Z,1024.63
2018-09-30T00:25:36.252Z,1024.62
2018-09-30T00:27:03.433Z,1024.60
2018-09-30T00:28:30.660Z,1024.59
2018-09-30T00:29:57.909Z,1024.56
2018-09-30T00:31:25.343Z,1024.53
2018-09-30T00:32:52.483Z,1024.47
2018-09-30T00:34:19.802Z,1024.45
2018-09-30T00:35:47.145Z,1024.40
2018-09-30T00:37:13.799Z,1024.41
2018-09-30T00:38:41.094Z,1024.42
2018-09-30T00:40:08.231Z,1024.42
2018-09-30T00:41:35.583Z,1024.39
2018-09-30T00:43:02.960Z,1024.37
2018-09-30T00:44:29.854Z,1024.36
2018-09-30T00:45:57.267Z,1024.33
2018-09-30T00:47:24.554Z,1024.34
2018-09-30T00:48:51.880Z,1024.35
2018-09-30T00:50:19.222Z,1024.31
2018-09-30T00:51:46.597Z,1024.29
2018-09-30T00:53:13.725Z,1024.25
2018-09-30T00:54:40.691Z,1024.25
2018-09-30T00:56:08.291Z,1024.24
2018-09-30T00:57:35.443Z,1024.23
2018-09-30T00:59:02.812Z,1024.20
2018-09-30T01:00:30.029Z,1024.18
2018-09-30T01:01:57.454Z,1024.15
2018-09-30T01:03:24.815Z,1024.15
2018-09-30T01:04:52.237Z,1024.16
2018-09-30T01:06:19.462Z,1024.18
2018-09-30T01:07:46.971Z,1024.17
2018-09-30T01:09:13.562Z,1024.18
2018-09-30T01:10:40.832Z,1024.18
2018-09-30T01:12:07.886Z,1024.17
2018-09-30T01:13:35.182Z,1024.13
2018-09-30T01:15:02.217Z,1024.11
2018-09-30T01:16:29.573Z,1024.10
2018-09-30T01:17:56.743Z,1024.09
2018-09-30T01:19:24.057Z,1024.07
2018-09-30T01:20:51.369Z,1024.02
2018-09-30T01:22:18.557Z,1024.01
2018-09-30T01:23:45.251Z,1024.03
2018-09-30T01:25:12.605Z,1024.03
2018-09-30T01:26:39.458Z,1024.02
2018-09-30T01:28:06.314Z,1024.03
2018-09-30T01:29:33.022Z,1024.04
2018-09-30T01:31:00.269Z,1024.04
2018-09-30T01:32:27.608Z,1024.01
2018-09-30T01:33:55.018Z,1023.99
2018-09-30T01:35:22.186Z,1024.00
2018-09-30T01:36:48.660Z,1023.99
2018-09-30T01:38:16.058Z,1024.00
2018-09-30T01:39:43.393Z,1023.98
2018-09-30T01:41:10.642Z,1023.98
2018-09-30T01:42:37.891Z,1024.00
2018-09-30T01:44:04.500Z,1023.97
2018-09-30T01:45:31.309Z,1023.96
2018-09-30T01:46:58.639Z,1023.94
2018-09-30T01:48:25.999Z,1023.89
2018-09-30T01:49:53.172Z,1023.86
2018-09-30T01:51:20.151Z,1023.82
2018-09-30T01:52:47.525Z,1023.80
2018-09-30T01:54:14.225Z,1023.77
2018-09-30T01:55:41.579Z,1023.75
2018-09-30T01:57:08.579Z,1023.73
2018-09-30T01:58:36.981Z,1023.73
2018-09-30T02:00:04.178Z,1023.70
2018-09-30T02:01:30.573Z,1023.68
2018-09-30T02:02:57.768Z,1023.67
2018-09-30T02:04:24.540Z,1023.67
2018-09-30T02:05:52.181Z,1023.64
2018-09-30T02:07:19.541Z,1023.61
2018-09-30T02:08:46.533Z,1023.59
2018-09-30T02:10:13.798Z,1023.58
2018-09-30T02:11:40.989Z,1023.54
2018-09-30T02:13:07.489Z,1023.53
2018-09-30T02:14:34.359Z,1023.51
2018-09-30T02:16:01.727Z,1023.54
2018-09-30T02:17:28.576Z,1023.50
2018-09-30T02:18:55.855Z,1023.49
2018-09-30T02:20:22.492Z,1023.46
2018-09-30T02:21:49.777Z,1023.44
2018-09-30T02:23:17.151Z,1023.39
2018-09-30T02:24:44.248Z,1023.35
2018-09-30T02:26:11.338Z,1023.36
2018-09-30T02:27:38.514Z,1023.34
2018-09-30T02:29:05.727Z,1023.34
2018-09-30T02:30:33.036Z,1023.32
2018-09-30T02:32:00.395Z,1023.27
2018-09-30T02:33:27.649Z,1023.25
2018-09-30T02:34:54.947Z,1023.18
2018-09-30T02:36:22.052Z,1023.19
2018-09-30T02:37:48.691Z,1023.16
2018-09-30T02:39:16.000Z,1023.14
2018-09-30T02:40:43.430Z,1023.12
2018-09-30T02:42:10.404Z,1023.12
2018-09-30T02:43:37.627Z,1023.13
2018-09-30T02:45:04.922Z,1023.15
2018-09-30T02:46:32.220Z,1023.11
2018-09-30T02:47:59.451Z,1023.08
2018-09-30T02:49:26.835Z,1023.08
2018-09-30T02:50:54.097Z,1023.08
2018-09-30T02:52:21.408Z,1023.07
2018-09-30T02:53:48.683Z,1023.04
2018-09-30T02:55:15.799Z,1023.05
2018-09-30T02:56:43.040Z,1023.02
2018-09-30T02:58:10.178Z,1023.03
2018-09-30T02:59:37.393Z,1023.04
2018-09-30T03:01:04.837Z,1023.05
2018-09-30T03:02:32.171Z,1023.02
2018-09-30T03:03:59.195Z,1022.98
2018-09-30T03:05:26.391Z,1022.97
2018-09-30T03:06:53.677Z,1022.93
2018-09-30T03:08:21.088Z,1022.90
2018-09-30T03:09:48.464Z,1022.88
2018-09-30T03:11:14.870Z,1022.88
2018-09-30T03:12:42.155Z,1022.82
2018-09-30T03:14:08.932Z,1022.80
2018-09-30T03:15:36.090Z,1022.80
2018-09-30T03:17:02.908Z,1022.80
2018-09-30T03:18:30.324Z,1022.79
2018-09-30T03:19:57.502Z,1022.76
2018-09-30T03:21:24.716Z,1022.74
2018-09-30T03:22:52.014Z,1022.73
2018-09-30T03:24:19.279Z,1022.70
2018-09-30T03:25:46.328Z,1022.67
2018-09-30T03:27:13.501Z,1022.66
2018-09-30T03:28:40.693Z,1022.67
2018-09-30T03:30:08.056Z,1022.66
2018-09-30T03:31:35.405Z,1022.66
2018-09-30T03:33:02.589Z,1022.65
2018-09-30T03:34:29.812Z,1022.65
2018-09-30T03:35:56.969Z,1022.61
2018-09-30T03:37:24.106Z,1022.62
2018-09-30T03:38:50.907Z,1022.61
2018-09-30T03:40:18.136Z,1022.58
2018-09-30T03:41:45.383Z,1022.53
2018-09-30T03:43:12.541Z,1022.50
2018-09-30T03:44:39.542Z,1022.50
2018-09-30T03:46:06.829Z,1022.45
2018-09-30T03:47:33.796Z,1022.45
2018-09-30T03:49:00.629Z,1022.43
2018-09-30T03:50:28.004Z,1022.47
2018-09-30T03:51:55.070Z,1022.47
2018-09-30T03:53:22.432Z,1022.43
2018-09-30T03:54:49.666Z,1022.39
2018-09-30T03:56:16.924Z,1022.38
2018-09-30T03:57:44.247Z,1022.37
2018-09-30T03:59:11.565Z,1022.37
2018-09-30T04:00:38.830Z,1022.37
2018-09-30T04:02:05.338Z,1022.36
2018-09-30T04:03:32.733Z,1022.35
2018-09-30T04:04:59.513Z,1022.32
2018-09-30T04:06:26.865Z,1022.32
2018-09-30T04:07:53.605Z,1022.29
2018-09-30T04:09:20.954Z,1022.28
2018-09-30T04:10:47.840Z,1022.30
2018-09-30T04:12:14.565Z,1022.29
2018-09-30T04:13:41.820Z,1022.24
2018-09-30T04:15:08.696Z,1022.23
2018-09-30T04:16:36.079Z,1022.24
2018-09-30T04:18:02.951Z,1022.23
2018-09-30T04:19:30.132Z,1022.22
2018-09-30T04:20:56.788Z,1022.23
2018-09-30T04:22:23.915Z,1022.26
2018-09-30T04:23:51.280Z,1022.25
2018-09-30T04:25:18.568Z,1022.21
2018-09-30T04:26:45.700Z,1022.18
2018-09-30T04:28:12.519Z,1022.15
2018-09-30T04:29:39.602Z,1022.11
2018-09-30T04:31:06.881Z,1022.11
2018-09-30T04:32:33.665Z,1022.11
2018-09-30T04:34:01.061Z,1022.07
2018-09-30T04:35:28.148Z,1022.09
2018-09-30T04:36:55.224Z,1022.08
2018-09-30T04:38:22.412Z,1022.05
2018-09-30T04:39:50.413Z,1022.03
2018-09-30T04:41:16.610Z,1022.04
2018-09-30T04:42:43.916Z,1022.03
2018-09-30T04:44:11.228Z,1022.00
2018-09-30T04:45:38.518Z,1021.99
2018-09-30T04:47:05.863Z,1021.99
2018-09-30T04:48:33.073Z,1021.96
2018-09-30T04:50:00.592Z,1021.93
2018-09-30T04:51:27.895Z,1021.92
2018-09-30T04:52:55.094Z,1021.93
2018-09-30T04:54:22.263Z,1021.89
2018-09-30T04:55:49.584Z,1021.88
2018-09-30T04:57:16.974Z,1021.90
2018-09-30T04:58:44.186Z,1021.87
2018-09-30T05:00:11.374Z,1021.84
2018-09-30T05:01:38.428Z,1021.82
2018-09-30T05:03:05.713Z,1021.77
2018-09-30T05:04:32.994Z,1021.77
2018-09-30T05:06:00.356Z,1021.75
2018-09-30T05:07:27.599Z,1021.74
2018-09-30T05:08:54.471Z,1021.73
2018-09-30T05:10:21.858Z,1021.70
2018-09-30T05:11:48.962Z,1021.71
2018-09-30T05:13:16.158Z,1021.73
2018-09-30T05:14:42.938Z,1021.74
2018-09-30T05:16:10.331Z,1021.72
2018-09-30T05:17:37.053Z,1021.69
2018-09-30T05:19:04.021Z,1021.68
2018-09-30T05:20:30.719Z,1021.65
2018-09-30T05:21:57.817Z,1021.66
2018-09-30T05:23:24.935Z,1021.62
2018-09-30T05:24:52.331Z,1021.63
2018-09-30T05:26:19.582Z,1021.62
2018-09-30T05:27:46.480Z,1021.63
2018-09-30T05:29:13.740Z,1021.64
2018-09-30T05:30:41.034Z,1021.66
2018-09-30T05:32:07.588Z,1021.66
2018-09-30T05:33:34.292Z,1021.68
2018-09-30T05:35:01.577Z,1021.68
2018-09-30T05:36:28.036Z,1021.72
2018-09-30T05:37:55.409Z,1021.70
2018-09-30T05:39:22.631Z,1021.68
2018-09-30T05:40:49.349Z,1021.66
2018-09-30T05:42:16.758Z,1021.64
2018-09-30T05:43:43.955Z,1021.65
2018-09-30T05:45:11.093Z,1021.63
2018-09-30T05:46:38.237Z,1021.61
2018-09-30T05:48:04.592Z,1021.59
2018-09-30T05:49:31.466Z,1021.56
2018-09-30T05:50:58.616Z,1021.56
2018-09-30T05:52:25.765Z,1021.54
2018-09-30T05:53:53.059Z,1021.53
2018-09-30T05:55:20.074Z,1021.52
2018-09-30T05:56:47.289Z,1021.50
2018-09-30T05:58:14.717Z,1021.49
2018-09-30T05:59:41.966Z,1021.52
2018-09-30T06:01:08.678Z,1021.52
2018-09-30T06:02:37.106Z,1021.51
2018-09-30T06:04:03.644Z,1021.51
2018-09-30T06:05:30.741Z,1021.51
2018-09-30T06:06:57.670Z,1021.47
2018-09-30T06:08:24.905Z,1021.49
2018-09-30T06:09:51.473Z,1021.51
2018-09-30T06:11:18.707Z,1021.52
2018-09-30T06:12:45.591Z,1021.53
2018-09-30T06:14:12.932Z,1021.54
2018-09-30T06:15:39.411Z,1021.54
2018-09-30T06:17:06.335Z,1021.51
2018-09-30T06:18:33.598Z,1021.48
2018-09-30T06:20:00.887Z,1021.48
2018-09-30T06:21:27.640Z,1021.51
2018-09-30T06:22:54.962Z,1021.45
2018-09-30T06:24:22.247Z,1021.46
2018-09-30T06:25:49.401Z,1021.44
2018-09-30T06:27:16.885Z,1021.43
2018-09-30T06:28:44.148Z,1021.41
2018-09-30T06:30:11.649Z,1021.39
2018-09-30T06:31:38.845Z,1021.38
2018-09-30T06:33:06.171Z,1021.34
2018-09-30T06:34:32.582Z,1021.33
2018-09-30T06:35:59.992Z,1021.29
2018-09-30T06:37:27.258Z,1021.31
2018-09-30T06:38:54.531Z,1021.30
2018-09-30T06:40:21.888Z,1021.30
2018-09-30T06:41:49.097Z,1021.30
2018-09-30T06:43:16.380Z,1021.26
2018-09-30T06:44:43.499Z,1021.26
2018-09-30T06:46:10.839Z,1021.24
2018-09-30T06:47:38.050Z,1021.23
2018-09-30T06:49:05.531Z,1021.25
2018-09-30T06:50:32.841Z,1021.24
2018-09-30T06:52:00.199Z,1021.24
2018-09-30T06:53:27.529Z,1021.20
2018-09-30T06:54:54.430Z,1021.18
2018-09-30T06:56:21.860Z,1021.15
2018-09-30T06:57:49.086Z,1021.18
2018-09-30T06:59:16.361Z,1021.18
2018-09-30T07:00:43.746Z,1021.18
2018-09-30T07:02:10.595Z,1021.19
2018-09-30T07:03:37.969Z,1021.18
2018-09-30T07:05:05.352Z,1021.15
2018-09-30T07:06:32.680Z,1021.14
2018-09-30T07:08:00.089Z,1021.13
2018-09-30T07:09:27.500Z,1021.10
2018-09-30T07:10:54.953Z,1021.09
2018-09-30T07:12:22.199Z,1021.06
2018-09-30T07:13:49.506Z,1021.05
2018-09-30T07:15:16.847Z,1021.03
2018-09-30T07:16:43.941Z,1021.05
2018-09-30T07:18:11.348Z,1021.02
2018-09-30T07:19:38.149Z,1021.03
2018-09-30T07:21:05.361Z,1021.04
2018-09-30T07:22:32.752Z,1021.03
2018-09-30T07:24:02.993Z,1021.02
2018-09-30T07:25:27.211Z,1020.99
2018-09-30T07:26:54.231Z,1021.00
2018-09-30T07:28:21.464Z,1021.01
2018-09-30T07:29:48.777Z,1021.00
2018-09-30T07:31:16.163Z,1021.00
2018-09-30T07:32:43.438Z,1020.94
2018-09-30T07:34:10.427Z,1020.93
2018-09-30T07:35:37.315Z,1020.91
2018-09-30T07:37:04.342Z,1020.90
2018-09-30T07:38:31.506Z,1020.90
2018-09-30T07:39:58.614Z,1020.92
2018-09-30T07:41:25.922Z,1020.91
2018-09-30T07:42:53.018Z,1020.87
2018-09-30T07:44:20.287Z,1020.84
2018-09-30T07:45:47.716Z,1020.80
2018-09-30T07:47:15.035Z,1020.79
2018-09-30T07:48:42.276Z,1020.77
2018-09-30T07:50:09.414Z,1020.77
2018-09-30T07:51:36.883Z,1020.79
2018-09-30T07:53:04.071Z,1020.83
2018-09-30T07:54:31.441Z,1020.85
2018-09-30T07:55:58.786Z,1020.83
2018-09-30T07:57:26.339Z,1020.81
2018-09-30T07:58:53.734Z,1020.77
2018-09-30T08:00:20.965Z,1020.80
2018-09-30T08:01:48.392Z,1020.76
2018-09-30T08:03:15.568Z,1020.76
2018-09-30T08:04:42.759Z,1020.72
2018-09-30T08:06:09.839Z,1020.71
2018-09-30T08:07:37.180Z,1020.69
2018-09-30T08:09:04.608Z,1020.67
2018-09-30T08:10:32.801Z,1020.69
2018-09-30T08:11:59.517Z,1020.68
2018-09-30T08:13:26.900Z,1020.71
2018-09-30T08:14:54.057Z,1020.69
2018-09-30T08:16:21.260Z,1020.71
2018-09-30T08:17:48.482Z,1020.68
2018-09-30T08:19:15.743Z,1020.66
2018-09-30T08:20:43.058Z,1020.62
2018-09-30T08:22:10.197Z,1020.59
2018-09-30T08:23:37.437Z,1020.56
2018-09-30T08:25:04.930Z,1020.53
2018-09-30T08:26:32.183Z,1020.52
2018-09-30T08:27:59.773Z,1020.51
2018-09-30T08:29:27.245Z,1020.51
2018-09-30T08:30:54.571Z,1020.48
2018-09-30T08:32:21.386Z,1020.46
2018-09-30T08:33:48.585Z,1020.44
2018-09-30T08:35:15.777Z,1020.47
2018-09-30T08:36:42.662Z,1020.48
2018-09-30T08:38:10.010Z,1020.48
2018-09-30T08:39:37.478Z,1020.48
2018-09-30T08:41:04.764Z,1020.51
2018-09-30T08:42:32.124Z,1020.54
2018-09-30T08:43:59.568Z,1020.53
2018-09-30T08:45:26.881Z,1020.52
2018-09-30T08:46:54.411Z,1020.48
2018-09-30T08:48:21.856Z,1020.46
2018-09-30T08:49:49.139Z,1020.45
2018-09-30T08:51:16.409Z,1020.39
2018-09-30T08:52:43.761Z,1020.38
2018-09-30T08:54:11.013Z,1020.36
2018-09-30T08:55:38.198Z,1020.32
2018-09-30T08:57:05.476Z,1020.31
2018-09-30T08:58:32.735Z,1020.25
2018-09-30T09:00:00.096Z,1020.24
2018-09-30T09:01:27.441Z,1020.24
2018-09-30T09:02:54.706Z,1020.24
2018-09-30T09:04:21.976Z,1020.23
2018-09-30T09:05:49.214Z,1020.20
2018-09-30T09:07:16.521Z,1020.19
2018-09-30T09:08:43.962Z,1020.17
2018-09-30T09:10:11.357Z,1020.18
2018-09-30T09:11:38.672Z,1020.18
2018-09-30T09:13:05.938Z,1020.20
2018-09-30T09:14:33.297Z,1020.20
2018-09-30T09:16:00.859Z,1020.17
2018-09-30T09:17:28.212Z,1020.17
2018-09-30T09:18:55.731Z,1020.15
2018-09-30T09:20:22.978Z,1020.09
2018-09-30T09:21:50.079Z,1020.10
2018-09-30T09:23:17.210Z,1020.07
2018-09-30T09:24:44.699Z,1020.06
2018-09-30T09:26:11.924Z,1020.01
2018-09-30T09:27:39.127Z,1020.03
2018-09-30T09:29:06.509Z,1020.00
2018-09-30T09:30:34.000Z,1019.98
2018-09-30T09:32:01.219Z,1019.93
2018-09-30T09:33:28.612Z,1019.94
2018-09-30T09:34:56.120Z,1019.90
2018-09-30T09:36:23.888Z,1019.89
2018-09-30T09:37:51.182Z,1019.87
2018-09-30T09:39:18.457Z,1019.84
2018-09-30T09:40:45.862Z,1019.80
2018-09-30T09:42:13.293Z,1019.77
2018-09-30T09:43:40.603Z,1019.76
2018-09-30T09:45:07.729Z,1019.74
2018-09-30T09:46:35.185Z,1019.73
2018-09-30T09:48:02.425Z,1019.73
2018-09-30T09:49:29.975Z,1019.67
2018-09-30T09:50:57.423Z,1019.68
2018-09-30T09:52:24.855Z,1019.66
2018-09-30T09:53:51.684Z,1019.67
2018-09-30T09:55:18.933Z,1019.63
2018-09-30T09:56:49.220Z,1019.59
2018-09-30T09:58:13.389Z,1019.55
2018-09-30T09:59:40.938Z,1019.59
2018-09-30T10:01:08.194Z,1019.53
2018-09-30T10:02:35.473Z,1019.58
2018-09-30T10:04:02.830Z,1019.52
2018-09-30T10:05:30.263Z,1019.54
2018-09-30T10:06:57.575Z,1019.53
2018-09-30T10:08:25.087Z,1019.48
2018-09-30T10:09:52.487Z,1019.43
2018-09-30T10:11:19.742Z,1019.43
2018-09-30T10:12:46.721Z,1019.44
2018-09-30T10:14:14.190Z,1019.44
2018-09-30T10:15:41.435Z,1019.42
2018-09-30T10:17:08.395Z,1019.34
2018-09-30T10:18:35.772Z,1019.34
2018-09-30T10:20:03.306Z,1019.31
2018-09-30T10:21:30.793Z,1019.30
2018-09-30T10:22:58.134Z,1019.28
2018-09-30T10:24:25.507Z,1019.22
2018-09-30T10:25:52.784Z,1019.15
2018-09-30T10:27:19.846Z,1019.16
2018-09-30T10:28:47.148Z,1019.13
2018-09-30T10:30:14.681Z,1019.10
2018-09-30T10:31:42.180Z,1019.08
2018-09-30T10:33:09.295Z,1019.03
2018-09-30T10:34:36.535Z,1019.00
2018-09-30T10:36:03.824Z,1018.93
2018-09-30T10:37:30.847Z,1018.92
2018-09-30T10:38:58.016Z,1018.88
2018-09-30T10:40:25.570Z,1018.88
2018-09-30T10:41:52.899Z,1018.85
2018-09-30T10:43:20.184Z,1018.79
2018-09-30T10:44:47.341Z,1018.74
2018-09-30T10:46:14.295Z,1018.70
2018-09-30T10:47:41.639Z,1018.66
2018-09-30T10:49:08.630Z,1018.60
2018-09-30T10:50:36.078Z,1018.59
2018-09-30T10:52:03.577Z,1018.51
2018-09-30T10:53:30.811Z,1018.49
2018-09-30T10:54:58.324Z,1018.44
2018-09-30T10:56:25.257Z,1018.35
2018-09-30T10:57:52.393Z,1018.33
2018-09-30T10:59:19.796Z,1018.28
2018-09-30T11:00:47.358Z,1018.27
2018-09-30T11:02:14.616Z,1018.23
2018-09-30T11:03:42.024Z,1018.25
2018-09-30T11:05:09.100Z,1018.24
2018-09-30T11:06:36.574Z,1018.23
2018-09-30T11:08:13.647Z,1018.16
2018-09-30T11:09:40.791Z,1018.19
2018-09-30T11:11:07.915Z,1018.17
2018-09-30T11:12:35.482Z,1018.14
2018-09-30T11:14:03.049Z,1018.16
2018-09-30T11:15:30.614Z,1018.19
2018-09-30T11:16:57.919Z,1018.18
2018-09-30T11:18:25.494Z,1018.19
2018-09-30T11:19:52.467Z,1018.17
2018-09-30T11:21:19.773Z,1018.11
2018-09-30T11:22:47.158Z,1018.09
2018-09-30T11:24:14.470Z,1018.03
2018-09-30T11:25:41.995Z,1018.06
2018-09-30T11:27:09.377Z,1018.06
2018-09-30T11:28:36.886Z,1018.09
2018-09-30T11:30:04.154Z,1018.13
2018-09-30T11:31:31.660Z,1018.07
2018-09-30T11:32:59.307Z,1018.06
2018-09-30T11:34:26.724Z,1018.05
2018-09-30T11:35:54.182Z,1017.99
2018-09-30T11:37:21.725Z,1017.97
2018-09-30T11:38:49.056Z,1017.99
2018-09-30T11:40:16.403Z,1017.98
2018-09-30T11:41:43.576Z,1017.98
2018-09-30T11:43:10.913Z,1017.93
2018-09-30T11:44:38.046Z,1017.92
2018-09-30T11:46:05.351Z,1017.88
2018-09-30T11:47:32.206Z,1017.87
2018-09-30T11:48:59.549Z,1017.81
2018-09-30T11:50:27.023Z,1017.81
2018-09-30T11:51:54.442Z,1017.82
2018-09-30T11:53:21.688Z,1017.78
2018-09-30T11:54:49.093Z,1017.78
2018-09-30T11:56:16.575Z,1017.73
2018-09-30T11:57:43.994Z,1017.72
2018-09-30T11:59:11.488Z,1017.70
2018-09-30T12:00:38.789Z,1017.70
2018-09-30T12:02:06.343Z,1017.68
2018-09-30T12:03:33.797Z,1017.65
2018-09-30T12:05:01.508Z,1017.57
2018-09-30T12:06:28.766Z,1017.53
2018-09-30T12:07:56.070Z,1017.51
2018-09-30T12:09:23.427Z,1017.49
2018-09-30T12:10:50.838Z,1017.47
2018-09-30T12:12:18.423Z,1017.49
2018-09-30T12:13:45.889Z,1017.49
2018-09-30T12:15:13.452Z,1017.49
2018-09-30T12:16:40.668Z,1017.44
2018-09-30T12:18:08.079Z,1017.42
2018-09-30T12:19:35.667Z,1017.42
2018-09-30T12:21:03.333Z,1017.40
2018-09-30T12:22:30.610Z,1017.37
2018-09-30T12:23:58.145Z,1017.32
2018-09-30T12:25:25.481Z,1017.28
2018-09-30T12:26:52.905Z,1017.26
2018-09-30T12:28:20.173Z,1017.26
2018-09-30T12:29:47.889Z,1017.22
2018-09-30T12:31:15.515Z,1017.23
2018-09-30T12:32:42.898Z,1017.19
2018-09-30T12:34:10.212Z,1017.14
2018-09-30T12:35:37.610Z,1017.20
2018-09-30T12:37:05.212Z,1017.17
2018-09-30T12:38:32.234Z,1017.20
2018-09-30T12:39:59.792Z,1017.15
2018-09-30T12:41:27.003Z,1017.10
2018-09-30T12:42:54.589Z,1017.07
2018-09-30T12:44:22.172Z,1017.03
2018-09-30T12:45:49.442Z,1017.02
2018-09-30T12:47:16.928Z,1017.00
2018-09-30T12:48:44.158Z,1016.99
2018-09-30T12:50:11.687Z,1016.97
2018-09-30T12:51:38.178Z,1016.96
2018-09-30T12:53:05.648Z,1016.97
2018-09-30T12:54:32.604Z,1016.99
2018-09-30T12:56:00.195Z,1016.97
2018-09-30T12:57:27.417Z,1016.93
2018-09-30T12:58:54.879Z,1016.97
2018-09-30T13:00:22.219Z,1016.91
2018-09-30T13:01:49.538Z,1016.89
2018-09-30T13:03:17.019Z,1016.92
2018-09-30T13:04:44.089Z,1016.94
2018-09-30T13:06:11.624Z,1016.94
2018-09-30T13:07:38.793Z,1016.92
2018-09-30T13:09:06.446Z,1016.89
2018-09-30T13:10:33.141Z,1016.87
2018-09-30T13:12:00.339Z,1016.81
2018-09-30T13:13:27.660Z,1016.80
2018-09-30T13:14:55.205Z,1016.81
2018-09-30T13:16:22.586Z,1016.82
2018-09-30T13:17:50.079Z,1016.84
2018-09-30T13:19:17.484Z,1016.83
2018-09-30T13:20:44.311Z,1016.82
2018-09-30T13:22:11.603Z,1016.79
2018-09-30T13:23:38.484Z,1016.78
2018-09-30T13:25:05.396Z,1016.78
2018-09-30T13:26:32.314Z,1016.74
2018-09-30T13:27:59.652Z,1016.72
2018-09-30T13:29:27.247Z,1016.71
2018-09-30T13:30:54.866Z,1016.69
2018-09-30T13:32:22.358Z,1016.67
2018-09-30T13:33:49.751Z,1016.68
2018-09-30T13:35:16.975Z,1016.69
2018-09-30T13:36:44.164Z,1016.68
2018-09-30T13:38:11.282Z,1016.67
2018-09-30T13:39:38.656Z,1016.69
2018-09-30T13:41:06.180Z,1016.70
2018-09-30T13:42:33.475Z,1016.69
2018-09-30T13:44:00.767Z,1016.67
2018-09-30T13:45:28.300Z,1016.67
2018-09-30T13:46:55.780Z,1016.66
2018-09-30T13:48:23.210Z,1016.65
2018-09-30T13:49:50.448Z,1016.67
2018-09-30T13:51:17.951Z,1016.64
2018-09-30T13:52:45.437Z,1016.63
2018-09-30T13:54:12.870Z,1016.63
2018-09-30T13:55:40.127Z,1016.65
2018-09-30T13:57:07.556Z,1016.64
2018-09-30T13:58:35.209Z,1016.65
2018-09-30T14:00:02.384Z,1016.61
2018-09-30T14:01:29.956Z,1016.60
2018-09-30T14:02:57.382Z,1016.58
2018-09-30T14:04:24.987Z,1016.60
2018-09-30T14:05:52.376Z,1016.60
2018-09-30T14:07:19.878Z,1016.59
2018-09-30T14:08:47.411Z,1016.60
2018-09-30T14:10:14.734Z,1016.61
2018-09-30T14:11:42.092Z,1016.62
2018-09-30T14:13:09.451Z,1016.61
2018-09-30T14:14:36.711Z,1016.63
2018-09-30T14:16:04.203Z,1016.60
2018-09-30T14:17:31.728Z,1016.63
2018-09-30T14:18:59.072Z,1016.62
2018-09-30T14:20:26.060Z,1016.62
2018-09-30T14:21:53.492Z,1016.59
2018-09-30T14:23:20.887Z,1016.57
2018-09-30T14:24:48.336Z,1016.56
2018-09-30T14:26:15.280Z,1016.58
2018-09-30T14:27:42.660Z,1016.57
2018-09-30T14:29:09.891Z,1016.54
2018-09-30T14:30:37.524Z,1016.53
2018-09-30T14:32:04.571Z,1016.52
2018-09-30T14:33:32.079Z,1016.51
2018-09-30T14:34:59.179Z,1016.50
2018-09-30T14:36:26.639Z,1016.51
2018-09-30T14:37:54.080Z,1016.49
2018-09-30T14:39:21.612Z,1016.46
2018-09-30T14:40:49.083Z,1016.45
2018-09-30T14:42:16.642Z,1016.43
2018-09-30T14:43:43.871Z,1016.40
2018-09-30T14:45:11.377Z,1016.41
2018-09-30T14:46:38.630Z,1016.41
2018-09-30T14:48:06.108Z,1016.39
2018-09-30T14:49:32.633Z,1016.38
2018-09-30T14:50:59.624Z,1016.37
2018-09-30T14:52:27.413Z,1016.37
2018-09-30T14:53:54.263Z,1016.36
2018-09-30T14:55:21.723Z,1016.34
2018-09-30T14:56:48.877Z,1016.33
2018-09-30T14:58:16.061Z,1016.33
2018-09-30T14:59:43.390Z,1016.28
2018-09-30T15:01:10.213Z,1016.27
2018-09-30T15:02:37.653Z,1016.26
2018-09-30T15:04:04.993Z,1016.27
2018-09-30T15:05:32.283Z,1016.26
2018-09-30T15:06:59.664Z,1016.25
2018-09-30T15:08:26.694Z,1016.24
2018-09-30T15:09:53.739Z,1016.22
2018-09-30T15:11:21.195Z,1016.21
2018-09-30T15:12:48.831Z,1016.22
2018-09-30T15:14:15.987Z,1016.22
2018-09-30T15:15:43.086Z,1016.22
2018-09-30T15:17:10.387Z,1016.22
2018-09-30T15:18:37.864Z,1016.21
2018-09-30T15:20:05.354Z,1016.22
2018-09-30T15:21:32.891Z,1016.18
2018-09-30T15:23:00.428Z,1016.20
2018-09-30T15:24:27.359Z,1016.20
2018-09-30T15:25:54.808Z,1016.23
2018-09-30T15:27:22.187Z,1016.22
2018-09-30T15:28:49.485Z,1016.21
2018-09-30T15:30:17.030Z,1016.24
2018-09-30T15:31:44.347Z,1016.25
2018-09-30T15:33:11.825Z,1016.22
2018-09-30T15:34:38.663Z,1016.24
2018-09-30T15:36:05.974Z,1016.22
2018-09-30T15:37:33.330Z,1016.23
2018-09-30T15:39:00.948Z,1016.24
2018-09-30T15:40:27.738Z,1016.24
2018-09-30T15:41:54.821Z,1016.24
2018-09-30T15:43:21.711Z,1016.23
2018-09-30T15:44:49.115Z,1016.24
2018-09-30T15:46:16.631Z,1016.23
2018-09-30T15:47:43.701Z,1016.20
2018-09-30T15:49:10.625Z,1016.21
2018-09-30T15:50:38.040Z,1016.21
2018-09-30T15:52:04.982Z,1016.22
2018-09-30T15:53:32.666Z,1016.22
2018-09-30T15:55:00.169Z,1016.24
2018-09-30T15:56:27.472Z,1016.22
2018-09-30T15:57:54.419Z,1016.21
2018-09-30T15:59:21.583Z,1016.18
2018-09-30T16:00:48.806Z,1016.18
2018-09-30T16:02:16.138Z,1016.20
2018-09-30T16:03:43.598Z,1016.20
2018-09-30T16:05:10.965Z,1016.16
2018-09-30T16:06:38.627Z,1016.16
2018-09-30T16:08:05.938Z,1016.15
2018-09-30T16:09:33.210Z,1016.13
2018-09-30T16:11:00.723Z,1016.12
2018-09-30T16:12:28.178Z,1016.13
2018-09-30T16:13:55.574Z,1016.11
2018-09-30T16:15:22.767Z,1016.11
2018-09-30T16:16:50.287Z,1016.09
2018-09-30T16:18:17.400Z,1016.11
2018-09-30T16:19:44.761Z,1016.11
2018-09-30T16:21:12.129Z,1016.12
2018-09-30T16:22:39.403Z,1016.08
2018-09-30T16:24:06.647Z,1016.09
2018-09-30T16:25:33.886Z,1016.08
2018-09-30T16:27:01.336Z,1016.06
2018-09-30T16:28:28.470Z,1016.04
2018-09-30T16:29:55.968Z,1016.04
2018-09-30T16:31:23.395Z,1016.05
2018-09-30T16:32:50.884Z,1016.04
2018-09-30T16:34:18.275Z,1016.04
2018-09-30T16:35:45.860Z,1016.05
2018-09-30T16:37:13.123Z,1016.04
2018-09-30T16:38:40.529Z,1016.00
2018-09-30T16:40:07.732Z,1016.00
2018-09-30T16:41:35.220Z,1016.00
2018-09-30T16:43:02.559Z,1015.98
2018-09-30T16:44:30.147Z,1015.97
2018-09-30T16:45:57.614Z,1015.97
2018-09-30T16:47:24.922Z,1015.98
2018-09-30T16:48:52.452Z,1015.99
2018-09-30T16:50:19.954Z,1016.00
2018-09-30T16:51:46.936Z,1016.02
2018-09-30T16:53:14.039Z,1016.03
2018-09-30T16:54:41.501Z,1016.03
2018-09-30T16:56:08.675Z,1016.00
2018-09-30T16:57:36.247Z,1016.01
2018-09-30T16:59:03.510Z,1016.01
2018-09-30T17:00:30.937Z,1016.01
2018-09-30T17:01:58.355Z,1016.01
2018-09-30T17:03:25.637Z,1016.02
2018-09-30T17:04:53.002Z,1016.00
2018-09-30T17:06:20.331Z,1016.01
2018-09-30T17:07:47.940Z,1016.01
2018-09-30T17:09:15.376Z,1015.99
2018-09-30T17:10:42.721Z,1015.96
2018-09-30T17:12:10.221Z,1015.96
2018-09-30T17:13:37.503Z,1015.95
2018-09-30T17:15:04.673Z,1015.96
2018-09-30T17:16:32.164Z,1015.96
2018-09-30T17:17:59.529Z,1015.95
2018-09-30T17:19:26.800Z,1015.96
2018-09-30T17:20:53.873Z,1015.95
2018-09-30T17:22:21.305Z,1015.96
2018-09-30T17:23:48.959Z,1015.97
2018-09-30T17:25:16.149Z,1016.01
2018-09-30T17:26:43.437Z,1016.01
2018-09-30T17:28:10.924Z,1016.03
2018-09-30T17:29:38.117Z,1016.02
2018-09-30T17:31:05.364Z,1016.00
2018-09-30T17:32:32.885Z,1015.99
2018-09-30T17:34:00.427Z,1015.96
2018-09-30T17:35:27.472Z,1015.95